Time;durP1;ratioP1;P1;durP2;ratioP2;P2;SDS_P1;SDS_P2;PMS_P1;PMS_P2;Temp;Humidity;BMP_temperature;BMP_pressure;BME280_temperature;BME280_humidity;BME280_pressure;Samples;Min_cycle;Max_cycle;Signal;HPM_P1;HPM_P2
2023/09/02 00:01:50;;;;;;;1999.90;999.90;;;19.10;99.90;;;;;;5089019;28;20024;-78
2023/09/02 00:04:16;;;;;;;1999.90;999.90;;;19.00;99.90;;;;;;5094266;28;20059;-70
2023/09/02 00:06:41;;;;;;;1999.90;999.90;;;19.10;99.90;;;;;;5093964;28;20112;-71
2023/09/02 00:09:07;;;;;;;1999.90;999.90;;;19.00;99.90;;;;;;5094271;28;20055;-78
2023/09/02 00:11:32;;;;;;;1999.90;999.90;;;19.00;99.90;;;;;;5081356;28;20027;-71
2023/09/02 00:13:58;;;;;;;1999.90;999.90;;;19.00;99.90;;;;;;5073681;28;20031;-71
2023/09/02 00:16:24;;;;;;;1999.90;999.90;;;19.00;99.90;;;;;;5071907;28;20065;-76
2023/09/02 00:18:49;;;;;;;1999.90;999.90;;;19.00;99.90;;;;;;5073788;28;20035;-71
2023/09/02 00:21:15;;;;;;;1999.90;999.90;;;19.00;99.90;;;;;;5073168;28;20032;-77
2023/09/02 00:23:45;;;;;;;1999.90;999.90;;;19.00;99.90;;;;;;5073384;28;20024;-72
2023/09/02 00:26:11;;;;;;;1999.90;999.90;;;18.90;99.90;;;;;;5073716;28;20021;-72
2023/09/02 00:28:37;;;;;;;1999.90;999.90;;;19.00;99.90;;;;;;5073579;28;20036;-77
2023/09/02 00:31:03;;;;;;;1999.90;999.90;;;18.90;99.90;;;;;;5073475;28;20024;-77
2023/09/02 00:33:28;;;;;;;1999.90;999.90;;;18.90;99.90;;;;;;5073772;28;20484;-71
2023/09/02 00:35:54;;;;;;;1999.90;999.90;;;18.90;99.90;;;;;;5073274;28;20066;-76
2023/09/02 00:38:20;;;;;;;1999.90;999.90;;;18.90;99.90;;;;;;5073450;28;20111;-72
2023/09/02 00:40:54;;;;;;;1999.90;999.90;;;18.90;99.90;;;;;;5073474;28;20103;-77
2023/09/02 00:43:20;;;;;;;1999.90;999.90;;;18.90;99.90;;;;;;5073515;28;20028;-70
2023/09/02 00:45:46;;;;;;;1999.90;999.90;;;18.90;99.90;;;;;;5073385;28;20078;-76
2023/09/02 00:48:12;;;;;;;1999.90;999.90;;;18.90;99.90;;;;;;5079691;28;20082;-77
2023/09/02 00:50:37;;;;;;;1999.90;999.90;;;18.90;99.90;;;;;;5093301;28;20026;-72
2023/09/02 00:53:03;;;;;;;1999.90;999.90;;;18.90;99.90;;;;;;5093432;28;20036;-71
2023/09/02 00:55:29;;;;;;;1999.90;999.90;;;18.90;99.90;;;;;;5093676;28;20103;-77
2023/09/02 00:57:56;;;;;;;1999.90;999.90;;;18.90;99.90;;;;;;5091452;28;20028;-76
2023/09/02 01:00:22;;;;;;;1999.90;999.90;;;18.90;99.90;;;;;;5080194;28;20082;-76
2023/09/02 01:02:49;;;;;;;1999.90;999.90;;;18.80;99.90;;;;;;5093660;28;20378;-71
2023/09/02 01:05:15;;;;;;;1999.90;999.90;;;18.90;99.90;;;;;;5093262;28;20071;-71
2023/09/02 01:07:42;;;;;;;1999.90;999.90;;;18.80;99.90;;;;;;5093126;28;20032;-77
2023/09/02 01:10:08;;;;;;;1999.90;999.90;;;18.80;99.90;;;;;;5092135;28;20034;-77
2023/09/02 01:12:33;;;;;;;1999.90;999.90;;;18.80;99.90;;;;;;5073170;28;20021;-77
2023/09/02 01:14:59;;;;;;;1999.90;999.90;;;18.80;99.90;;;;;;5072947;28;20029;-77
2023/09/02 01:17:24;;;;;;;1999.90;999.90;;;18.80;99.90;;;;;;5073064;28;20456;-71
2023/09/02 01:19:52;;;;;;;1999.90;999.90;;;18.80;99.90;;;;;;5072957;28;20029;-77
2023/09/02 01:22:46;;;;;;;1999.90;999.90;;;18.70;99.90;;;;;;5072872;28;20394;-77
2023/09/02 01:25:30;;;;;;;1999.90;999.90;;;18.70;99.90;;;;;;5041582;28;20045;-72
2023/09/02 01:28:03;;;;;;;1999.90;999.90;;;18.70;99.90;;;;;;5052938;28;20025;-72
2023/09/02 01:30:33;;;;;;;1999.90;999.90;;;18.70;99.90;;;;;;5052703;28;20087;-72
2023/09/02 01:33:02;;;;;;;1999.90;999.90;;;18.70;99.90;;;;;;5053223;28;20025;-73
2023/09/02 01:35:33;;;;;;;1999.90;999.90;;;18.80;99.90;;;;;;5053805;28;20028;-77
2023/09/02 01:38:00;;;;;;;1999.90;999.90;;;18.80;99.90;;;;;;5072611;28;20025;-77
2023/09/02 01:40:27;;;;;;;1999.90;999.90;;;18.80;99.90;;;;;;5072417;28;20053;-77
2023/09/02 01:42:56;;;;;;;1999.90;999.90;;;18.90;99.90;;;;;;5072894;28;20021;-73
2023/09/02 01:45:24;;;;;;;1999.90;999.90;;;18.80;99.90;;;;;;5072776;28;20095;-72
2023/09/02 01:47:51;;;;;;;1999.90;999.90;;;18.80;99.90;;;;;;5078963;28;20021;-72
2023/09/02 01:50:21;;;;;;;1999.90;999.90;;;18.80;99.90;;;;;;5089727;28;20032;-77
2023/09/02 01:52:47;;;;;;;1999.90;999.90;;;18.80;99.90;;;;;;5092863;28;20065;-77
2023/09/02 01:55:13;;;;;;;1999.90;999.90;;;18.80;99.90;;;;;;5092797;28;20028;-72
2023/09/02 01:57:40;;;;;;;1999.90;999.90;;;18.90;99.90;;;;;;5093121;28;20028;-76
2023/09/02 02:00:06;;;;;;;1999.90;999.90;;;18.80;99.90;;;;;;5078486;28;20036;-77
2023/09/02 02:02:32;;;;;;;1999.90;999.90;;;18.80;99.90;;;;;;5052707;28;20047;-72
2023/09/02 02:05:02;;;;;;;1999.90;999.90;;;18.80;99.90;;;;;;5052257;28;20504;-72
2023/09/02 02:07:33;;;;;;;1999.90;999.90;;;18.80;99.90;;;;;;5052588;28;20075;-77
2023/09/02 02:10:01;;;;;;;1999.90;999.90;;;18.80;99.90;;;;;;5052596;28;20029;-72
2023/09/02 02:12:27;;;;;;;1999.90;999.90;;;18.80;99.90;;;;;;5053967;28;20101;-77
2023/09/02 02:14:53;;;;;;;1999.90;999.90;;;18.80;99.90;;;;;;5074767;28;20472;-77
2023/09/02 02:17:19;;;;;;;1999.90;999.90;;;18.80;99.90;;;;;;5076490;28;20025;-78
2023/09/02 02:19:44;;;;;;;1999.90;999.90;;;18.80;99.90;;;;;;5076381;28;20128;-71
2023/09/02 02:22:10;;;;;;;1999.90;999.90;;;18.80;99.90;;;;;;5076200;28;20509;-72
2023/09/02 02:24:36;;;;;;;1999.90;999.90;;;18.80;99.90;;;;;;5075610;28;20478;-72
2023/09/02 02:27:02;;;;;;;1999.90;999.90;;;18.70;99.90;;;;;;5076014;28;20059;-78
2023/09/02 02:29:28;;;;;;;1999.90;999.90;;;18.70;99.90;;;;;;5075904;28;20423;-72
2023/09/02 02:31:54;;;;;;;1999.90;999.90;;;18.70;99.90;;;;;;5075802;28;20027;-72
2023/09/02 02:34:19;;;;;;;1999.90;999.90;;;18.70;99.90;;;;;;5075987;28;20052;-72
2023/09/02 02:36:45;;;;;;;1999.90;999.90;;;18.80;99.90;;;;;;5075468;28;20059;-71
2023/09/02 02:39:11;;;;;;;1999.90;999.90;;;18.80;99.90;;;;;;5075974;28;20028;-78
2023/09/02 02:41:36;;;;;;;1999.90;999.90;;;18.70;99.90;;;;;;5075403;28;20036;-78
2023/09/02 02:44:03;;;;;;;1999.90;999.90;;;18.70;99.90;;;;;;5075681;28;20039;-78
2023/09/02 02:46:28;;;;;;;1999.90;999.90;;;18.70;99.90;;;;;;5077650;28;20024;-71
2023/09/02 02:48:54;;;;;;;1999.90;999.90;;;18.70;99.90;;;;;;5085902;28;20153;-72
2023/09/02 02:51:20;;;;;;;1999.90;999.90;;;18.70;99.90;;;;;;5095946;28;20065;-78
2023/09/02 02:53:46;;;;;;;1999.90;999.90;;;18.70;99.90;;;;;;5095944;28;20534;-78
2023/09/02 02:56:12;;;;;;;1999.90;999.90;;;18.70;99.90;;;;;;5080136;28;20033;-78
2023/09/02 02:58:37;;;;;;;1999.90;999.90;;;18.70;99.90;;;;;;5078459;28;20074;-78
2023/09/02 03:01:08;;;;;;;1999.90;999.90;;;18.60;99.90;;;;;;5085207;28;20028;-72
2023/09/02 03:03:35;;;;;;;1999.90;999.90;;;18.60;99.90;;;;;;5095714;28;20061;-72
2023/09/02 03:06:05;;;;;;;1999.90;999.90;;;18.60;99.90;;;;;;5095564;28;20024;-71
2023/09/02 03:08:31;;;;;;;1999.90;999.90;;;18.50;99.90;;;;;;5097086;28;20446;-80
2023/09/02 03:10:58;;;;;;;1999.90;999.90;;;18.50;99.90;;;;;;5099865;28;20036;-79
2023/09/02 03:13:24;;;;;;;1999.90;999.90;;;18.50;99.90;;;;;;5092469;28;20082;-79
2023/09/02 03:15:51;;;;;;;1999.90;999.90;;;18.50;99.90;;;;;;5075616;28;20020;-72
2023/09/02 03:18:16;;;;;;;1999.90;999.90;;;18.50;99.90;;;;;;5077008;28;20108;-79
2023/09/02 03:20:42;;;;;;;1999.90;999.90;;;18.50;99.90;;;;;;5075348;28;20103;-79
2023/09/02 03:23:08;;;;;;;1999.90;999.90;;;18.50;99.90;;;;;;5074677;28;20118;-79
2023/09/02 03:25:34;;;;;;;1999.90;999.90;;;18.50;99.90;;;;;;5074355;28;20024;-71
2023/09/02 03:28:00;;;;;;;1999.90;999.90;;;18.50;99.90;;;;;;5074952;28;20021;-71
2023/09/02 03:30:26;;;;;;;1999.90;999.90;;;18.40;99.90;;;;;;5074892;28;20020;-79
2023/09/02 03:32:52;;;;;;;1999.90;999.90;;;18.40;99.90;;;;;;5074778;28;20590;-79
2023/09/02 03:35:18;;;;;;;1999.90;999.90;;;18.40;99.90;;;;;;5074704;28;20628;-79
2023/09/02 03:37:43;;;;;;;1999.90;999.90;;;18.40;99.90;;;;;;5074102;28;20044;-79
2023/09/02 03:40:09;;;;;;;1999.90;999.90;;;18.40;99.90;;;;;;5074495;28;20502;-71
2023/09/02 03:42:35;;;;;;;1999.90;999.90;;;18.30;99.90;;;;;;5074770;28;20032;-71
2023/09/02 03:45:00;;;;;;;1999.90;999.90;;;18.30;99.90;;;;;;5074506;28;20360;-72
2023/09/02 03:47:33;;;;;;;1999.90;999.90;;;18.30;99.90;;;;;;5080848;28;20032;-79
2023/09/02 03:49:59;;;;;;;1999.90;999.90;;;18.30;99.90;;;;;;5089100;28;20020;-79
2023/09/02 03:52:24;;;;;;;1999.90;999.90;;;18.30;99.90;;;;;;5094370;28;20419;-72
2023/09/02 03:54:50;;;;;;;1999.90;999.90;;;18.20;99.90;;;;;;5094589;28;20020;-72
2023/09/02 03:57:16;;;;;;;1999.90;999.90;;;18.20;99.90;;;;;;5094798;28;20051;-79
2023/09/02 03:59:42;;;;;;;1999.90;999.90;;;18.10;99.90;;;;;;5083788;28;20032;-73
2023/09/02 04:02:07;;;;;;;1999.90;999.90;;;18.10;99.90;;;;;;5090809;28;20106;-79
2023/09/02 04:04:33;;;;;;;1999.90;999.90;;;18.10;99.90;;;;;;5094150;28;20048;-79
2023/09/02 04:06:59;;;;;;;1999.90;999.90;;;18.10;99.90;;;;;;5094640;28;20029;-71
2023/09/02 04:09:25;;;;;;;1999.90;999.90;;;18.00;99.90;;;;;;5094070;28;20016;-78
2023/09/02 04:11:50;;;;;;;1999.90;999.90;;;18.00;99.90;;;;;;5078888;28;20029;-79
2023/09/02 04:14:16;;;;;;;1999.90;999.90;;;18.00;99.90;;;;;;5073972;28;20036;-78
2023/09/02 04:16:41;;;;;;;1999.90;999.90;;;18.00;99.90;;;;;;5076194;28;20036;-79
2023/09/02 04:19:07;;;;;;;1999.90;999.90;;;17.90;99.90;;;;;;5083709;28;20035;-72
2023/09/02 04:21:33;;;;;;;1999.90;999.90;;;17.90;99.90;;;;;;5093945;28;20471;-72
2023/09/02 04:23:58;;;;;;;1999.90;999.90;;;18.00;99.90;;;;;;5093729;28;20023;-72
2023/09/02 04:26:24;;;;;;;1999.90;999.90;;;17.90;99.90;;;;;;5093958;28;20027;-78
2023/09/02 04:28:50;;;;;;;1999.90;999.90;;;17.90;99.90;;;;;;5094135;28;20024;-78
2023/09/02 04:31:16;;;;;;;1999.90;999.90;;;18.00;99.90;;;;;;5094003;28;20366;-72
2023/09/02 04:33:41;;;;;;;1999.90;999.90;;;17.90;99.90;;;;;;5093637;28;20077;-72
2023/09/02 04:36:07;;;;;;;1999.90;999.90;;;17.90;99.90;;;;;;5086228;28;20035;-78
2023/09/02 04:38:33;;;;;;;1999.90;999.90;;;17.90;99.90;;;;;;5073383;28;20063;-72
2023/09/02 04:41:06;;;;;;;1999.90;999.90;;;17.80;99.90;;;;;;5073826;28;20099;-79
2023/09/02 04:43:34;;;;;;;1999.90;999.90;;;17.80;99.90;;;;;;5078903;28;20442;-78
2023/09/02 04:46:02;;;;;;;1999.90;999.90;;;17.90;99.90;;;;;;5083243;28;20103;-72
2023/09/02 04:48:28;;;;;;;1999.90;999.90;;;17.90;99.90;;;;;;5079072;28;20029;-78
2023/09/02 04:50:53;;;;;;;1999.90;999.90;;;17.90;99.90;;;;;;5092385;28;20390;-78
2023/09/02 04:53:19;;;;;;;1999.90;999.90;;;17.90;99.90;;;;;;5093753;28;20028;-78
2023/09/02 04:55:46;;;;;;;1999.90;999.90;;;17.90;99.90;;;;;;5093604;28;20079;-79
2023/09/02 04:58:12;;;;;;;1999.90;999.90;;;17.90;99.90;;;;;;5090449;28;20020;-78
2023/09/02 05:00:38;;;;;;;1999.90;999.90;;;18.00;99.90;;;;;;5087392;28;20035;-72
2023/09/02 05:03:04;;;;;;;1999.90;999.90;;;18.00;99.90;;;;;;5073435;28;20020;-78
2023/09/02 05:05:31;;;;;;;1999.90;999.90;;;18.10;99.90;;;;;;5073010;28;20123;-71
2023/09/02 05:07:58;;;;;;;1999.90;999.90;;;18.00;99.90;;;;;;5073170;28;20047;-79
2023/09/02 05:10:24;;;;;;;1999.90;999.90;;;18.00;99.90;;;;;;5072909;28;20096;-71
2023/09/02 05:12:50;;;;;;;1999.90;999.90;;;18.10;99.90;;;;;;5073224;28;20054;-72
2023/09/02 05:15:16;;;;;;;1999.90;999.90;;;18.10;99.90;;;;;;5074057;28;20029;-78
2023/09/02 05:17:42;;;;;;;1999.90;999.90;;;18.10;99.90;;;;;;5082663;28;20036;-72
2023/09/02 05:20:09;;;;;;;1999.90;999.90;;;18.10;99.90;;;;;;5074442;28;20426;-77
2023/09/02 05:22:35;;;;;;;1999.90;999.90;;;18.20;99.90;;;;;;5073916;28;20024;-78
2023/09/02 05:25:02;;;;;;;1999.90;999.90;;;18.20;99.90;;;;;;5092856;28;20020;-72
2023/09/02 05:27:28;;;;;;;1999.90;999.90;;;18.20;99.90;;;;;;5093087;28;20464;-71
2023/09/02 05:29:54;;;;;;;1999.90;999.90;;;18.10;99.90;;;;;;5093205;28;20034;-71
2023/09/02 05:32:20;;;;;;;1999.90;999.90;;;18.10;99.90;;;;;;5093034;28;20107;-71
2023/09/02 05:34:46;;;;;;;1999.90;999.90;;;18.10;99.90;;;;;;5092997;28;20063;-78
2023/09/02 05:37:11;;;;;;;1999.90;999.90;;;18.10;99.90;;;;;;5077187;28;20020;-71
2023/09/02 05:39:37;;;;;;;1999.90;999.90;;;18.10;99.90;;;;;;5072941;28;20170;-71
2023/09/02 05:42:03;;;;;;;1999.90;999.90;;;18.10;99.90;;;;;;5073288;28;20025;-78
2023/09/02 05:44:29;;;;;;;1999.90;999.90;;;18.10;99.90;;;;;;5072693;28;20067;-71
2023/09/02 05:46:54;;;;;;;1999.90;999.90;;;18.20;99.90;;;;;;5077296;28;20028;-78
2023/09/02 05:49:20;;;;;;;1999.90;999.90;;;18.30;99.90;;;;;;5088011;28;20145;-72
2023/09/02 05:51:46;;;;;;;1999.90;999.90;;;18.30;99.90;;;;;;5097135;28;20069;-71
2023/09/02 05:54:11;;;;;;;1999.90;999.90;;;18.40;99.90;;;;;;5097082;28;20028;-78
2023/09/02 05:56:37;;;;;;;1999.90;999.90;;;18.40;99.90;;;;;;5097068;28;20038;-78
2023/09/02 05:59:03;;;;;;;1999.90;999.90;;;18.40;99.90;;;;;;5091606;28;20119;-75
2023/09/02 06:01:30;;;;;;;1999.90;999.90;;;18.40;99.90;;;;;;5076618;28;20033;-78
2023/09/02 06:03:55;;;;;;;1999.90;999.90;;;18.40;99.90;;;;;;5076394;28;20507;-78
2023/09/02 06:06:22;;;;;;;1999.90;999.90;;;18.50;99.90;;;;;;5076395;28;20029;-71
2023/09/02 06:08:48;;;;;;;1999.90;999.90;;;18.50;99.90;;;;;;5074893;28;20395;-78
2023/09/02 06:11:14;;;;;;;1999.90;999.90;;;18.50;99.90;;;;;;5076400;28;20082;-78
2023/09/02 06:13:39;;;;;;;1999.90;999.90;;;18.50;99.90;;;;;;5076049;28;20017;-71
2023/09/02 06:16:06;;;;;;;1999.90;999.90;;;18.60;99.90;;;;;;5076431;28;20545;-71
2023/09/02 06:18:33;;;;;;;1999.90;999.90;;;18.60;99.90;;;;;;5076795;28;20045;-71
2023/09/02 06:20:59;;;;;;;1999.90;999.90;;;18.70;99.90;;;;;;5077626;28;20033;-79
2023/09/02 06:23:25;;;;;;;1999.90;999.90;;;18.80;99.90;;;;;;5083997;28;20123;-78
2023/09/02 06:26:11;;;;;;;1999.90;999.90;;;18.90;99.90;;;;;;5085874;28;20423;-79
2023/09/02 06:28:37;;;;;;;1999.90;999.90;;;18.90;99.90;;;;;;5076720;28;20391;-71
2023/09/02 06:31:10;;;;;;;1999.90;999.90;;;19.00;99.90;;;;;;5076046;28;20055;-71
2023/09/02 06:33:36;;;;;;;1999.90;999.90;;;19.00;99.90;;;;;;5076082;28;20032;-78
2023/09/02 06:36:12;;;;;;;1999.90;999.90;;;18.80;99.90;;;;;;5075799;28;20043;-78
2023/09/02 06:38:37;;;;;;;1999.90;999.90;;;18.60;99.90;;;;;;5075724;28;20019;-78
2023/09/02 06:41:14;;;;;;;1999.90;999.90;;;18.60;99.90;;;;;;5076125;28;20028;-71
2023/09/02 06:43:40;;;;;;;1999.90;999.90;;;18.60;99.90;;;;;;5075780;28;20482;-72
2023/09/02 06:46:13;;;;;;;1999.90;999.90;;;18.70;99.90;;;;;;5076568;28;20107;-78
2023/09/02 06:48:39;;;;;;;1999.90;999.90;;;18.70;99.90;;;;;;5087223;28;20031;-78
2023/09/02 06:51:04;;;;;;;1999.90;999.90;;;18.80;99.90;;;;;;5074550;28;20033;-71
2023/09/02 06:53:30;;;;;;;1999.90;999.90;;;18.80;99.90;;;;;;5075725;28;20070;-78
2023/09/02 06:55:56;;;;;;;1999.90;999.90;;;19.00;99.90;;;;;;5074235;28;20048;-72
2023/09/02 06:58:21;;;;;;;1999.90;999.90;;;19.00;99.90;;;;;;5076425;28;20029;-78
2023/09/02 07:00:48;;;;;;;1999.90;999.90;;;19.00;99.90;;;;;;5080048;28;20033;-78
2023/09/02 07:03:14;;;;;;;1999.90;999.90;;;19.10;99.90;;;;;;5092241;28;20024;-78
2023/09/02 07:05:40;;;;;;;1999.90;999.90;;;19.30;99.90;;;;;;5093764;28;20028;-77
2023/09/02 07:08:06;;;;;;;1999.90;999.90;;;19.30;99.90;;;;;;5082374;28;20051;-72
2023/09/02 07:10:31;;;;;;;1999.90;999.90;;;19.50;99.90;;;;;;5091039;28;20090;-78
2023/09/02 07:12:57;;;;;;;1999.90;999.90;;;19.60;99.90;;;;;;5075401;28;20035;-78
2023/09/02 07:15:22;;;;;;;1999.90;999.90;;;19.50;99.90;;;;;;5075081;28;20078;-78
2023/09/02 07:17:48;;;;;;;1999.90;999.90;;;19.70;99.90;;;;;;5075512;28;20040;-78
2023/09/02 07:20:14;;;;;;;1999.90;999.90;;;19.70;99.90;;;;;;5074989;28;20379;-71
2023/09/02 07:22:39;;;;;;;1999.90;999.90;;;19.60;99.90;;;;;;5074948;28;20028;-72
2023/09/02 07:25:08;;;;;;;1999.90;999.90;;;19.70;99.90;;;;;;5075007;28;20104;-78
2023/09/02 07:27:33;;;;;;;1999.90;999.90;;;19.70;99.90;;;;;;5075160;28;20021;-78
2023/09/02 07:29:59;;;;;;;1999.90;999.90;;;19.80;99.90;;;;;;5074848;28;20392;-72
2023/09/02 07:32:25;;;;;;;1999.90;999.90;;;19.90;99.90;;;;;;5074854;28;20028;-72
2023/09/02 07:34:51;;;;;;;1999.90;999.90;;;19.70;99.90;;;;;;5074966;28;20025;-72
2023/09/02 07:37:16;;;;;;;1999.90;999.90;;;19.50;99.90;;;;;;5074566;28;20035;-72
2023/09/02 07:39:42;;;;;;;1999.90;999.90;;;19.40;99.90;;;;;;5074470;28;20103;-78
2023/09/02 07:42:08;;;;;;;1999.90;999.90;;;19.30;99.90;;;;;;5074959;28;20020;-78
2023/09/02 07:44:33;;;;;;;1999.90;999.90;;;19.30;99.90;;;;;;5074510;28;20024;-72
2023/09/02 07:46:59;;;;;;;1999.90;999.90;;;19.30;99.90;;;;;;5077897;28;20391;-72
2023/09/02 07:49:25;;;;;;;1999.90;999.90;;;19.30;99.90;;;;;;5087043;28;20027;-73
2023/09/02 07:51:50;;;;;;;1999.90;999.90;;;19.20;99.90;;;;;;5085686;28;20039;-78
2023/09/02 07:54:17;;;;;;;1999.90;999.90;;;19.20;99.90;;;;;;5090967;28;20071;-78
2023/09/02 07:56:43;;;;;;;1999.90;999.90;;;19.20;99.90;;;;;;5085500;28;20024;-78
2023/09/02 07:59:08;;;;;;;1999.90;999.90;;;19.20;99.90;;;;;;5089593;28;20521;-72
2023/09/02 08:01:34;;;;;;;1999.90;999.90;;;19.20;99.90;;;;;;5070959;28;20028;-71
2023/09/02 08:03:59;;;;;;;1999.90;999.90;;;19.20;99.90;;;;;;5085065;28;20083;-78
2023/09/02 08:06:25;;;;;;;1999.90;999.90;;;19.30;99.90;;;;;;5094420;28;20028;-78
2023/09/02 08:08:53;;;;;;;1999.90;999.90;;;19.30;99.90;;;;;;5094466;28;20530;-78
2023/09/02 08:11:18;;;;;;;1999.90;999.90;;;19.40;99.90;;;;;;5083189;28;20024;-78
2023/09/02 08:13:44;;;;;;;1999.90;999.90;;;19.50;99.90;;;;;;5073871;28;20475;-71
2023/09/02 08:16:10;;;;;;;1999.90;999.90;;;19.50;99.90;;;;;;5075568;28;20032;-78
2023/09/02 08:18:36;;;;;;;1999.90;999.90;;;19.70;99.90;;;;;;5084563;28;20479;-78
2023/09/02 08:21:08;;;;;;;1999.90;999.90;;;19.70;99.90;;;;;;5094065;28;20398;-78
2023/09/02 08:23:34;;;;;;;1999.90;999.90;;;19.80;99.90;;;;;;5088704;28;20020;-78
2023/09/02 08:26:14;;;;;;;1999.90;999.90;;;19.80;99.90;;;;;;5084903;28;20028;-72
2023/09/02 08:28:41;;;;;;;1999.90;999.90;;;19.90;99.90;;;;;;5094345;28;20027;-72
2023/09/02 08:31:09;;;;;;;1999.90;999.90;;;19.90;99.90;;;;;;5094140;28;20036;-78
2023/09/02 08:33:35;;;;;;;1999.90;999.90;;;20.00;99.90;;;;;;5094040;28;20034;-72
2023/09/02 08:36:01;;;;;;;1999.90;999.90;;;20.30;99.90;;;;;;5087846;28;20043;-78
2023/09/02 08:38:26;;;;;;;1999.90;999.90;;;20.70;99.90;;;;;;5073663;28;20521;-72
2023/09/02 08:40:53;;;;;;;1999.90;999.90;;;21.40;99.90;;;;;;5073367;28;20039;-78
2023/09/02 08:43:20;;;;;;;1999.90;999.90;;;22.50;99.90;;;;;;5073266;28;20020;-78
2023/09/02 08:45:51;;;;;;;1999.90;999.90;;;23.60;99.90;;;;;;5073238;28;20051;-72
2023/09/02 08:48:23;;;;;;;1999.90;999.90;;;23.80;99.90;;;;;;5079693;28;20476;-78
2023/09/02 08:50:50;;;;;;;1999.90;999.90;;;26.00;99.90;;;;;;5053444;28;20025;-72
2023/09/02 08:53:16;;;;;;;1999.90;999.90;;;27.60;99.90;;;;;;5053444;28;20076;-71
2023/09/02 08:55:44;;;;;;;1999.90;999.90;;;29.70;99.90;;;;;;5052942;28;20021;-76
2023/09/02 08:58:12;;;;;;;1999.90;999.90;;;31.10;99.90;;;;;;5057624;28;20033;-75
2023/09/02 09:00:39;;;;;;;1999.90;999.90;;;32.10;99.90;;;;;;5081896;28;20074;-76
2023/09/02 09:03:06;;;;;;;1999.90;999.90;;;32.30;99.90;;;;;;5093636;28;20029;-76
2023/09/02 09:05:32;;;;;;;1999.90;999.90;;;31.90;99.90;;;;;;5093074;28;20048;-70
2023/09/02 09:08:00;;;;;;;1999.90;999.90;;;31.90;99.90;;;;;;5093227;28;20031;-76
2023/09/02 09:10:27;;;;;;;1999.90;999.90;;;31.30;99.90;;;;;;5089569;28;20471;-76
2023/09/02 09:12:54;;;;;;;1999.90;999.90;;;31.50;99.90;;;;;;5072993;28;20027;-76
2023/09/02 09:15:22;;;;;;;1999.90;999.90;;;30.80;99.90;;;;;;5072856;28;20200;-76
2023/09/02 09:17:49;;;;;;;1999.90;999.90;;;30.70;99.90;;;;;;5072938;28;20394;-70
2023/09/02 09:20:15;;;;;;;1999.90;999.90;;;30.40;99.90;;;;;;5072680;28;20086;-71
2023/09/02 09:22:41;;;;;;;1999.90;999.90;;;30.90;99.90;;;;;;5071547;28;20027;-77
2023/09/02 09:25:07;;;;;;;1999.90;999.90;;;31.20;99.90;;;;;;5073092;28;20021;-76
2023/09/02 09:27:34;;;;;;;1999.90;999.90;;;31.50;99.90;;;;;;5073083;28;20042;-76
2023/09/02 09:30:00;;;;;;;1999.90;999.90;;;31.20;99.90;;;;;;5073360;28;20460;-76
2023/09/02 09:32:26;;;;;;;1999.90;999.90;;;31.00;99.90;;;;;;5072718;28;20055;-71
2023/09/02 09:34:51;;;;;;;1999.90;999.90;;;30.80;99.90;;;;;;5073248;28;20029;-76
2023/09/02 09:37:17;;;;;;;1999.90;999.90;;;30.80;99.90;;;;;;5072564;28;20368;-71
2023/09/02 09:39:47;;;;;;;1999.90;999.90;;;30.70;99.90;;;;;;5072974;28;20047;-72
2023/09/02 09:42:17;;;;;;;1999.90;999.90;;;31.30;99.90;;;;;;5072601;28;20035;-75
2023/09/02 09:44:57;;;;;;;1999.90;999.90;;;30.60;99.90;;;;;;5072868;28;20059;-71
2023/09/02 09:47:24;;;;;;;1999.90;999.90;;;28.60;99.90;;;;;;5078966;28;20024;-77
2023/09/02 09:49:50;;;;;;;1999.90;999.90;;;27.50;99.90;;;;;;5085261;28;20344;-77
2023/09/02 09:52:18;;;;;;;1999.90;999.90;;;27.50;99.90;;;;;;5092769;28;20016;-77
2023/09/02 09:54:53;;;;;;;1999.90;999.90;;;28.70;99.90;;;;;;5093045;28;20024;-73
2023/09/02 09:57:37;;;;;;;1999.90;999.90;;;28.10;99.90;;;;;;5092632;28;20044;-73
2023/09/02 10:00:05;;;;;;;1999.90;999.90;;;26.80;99.90;;;;;;5080054;28;20058;-77
2023/09/02 10:02:31;;;;;;;1999.90;999.90;;;26.90;99.90;;;;;;5091475;28;20166;-77
2023/09/02 10:04:59;;;;;;;1999.90;999.90;;;26.40;99.90;;;;;;5092406;28;20567;-73
2023/09/02 10:07:33;;;;;;;1999.90;999.90;;;26.50;99.90;;;;;;5092785;28;20455;-77
2023/09/02 10:10:03;;;;;;;1999.90;999.90;;;25.90;99.90;;;;;;5092841;28;20459;-72
2023/09/02 10:12:38;;;;;;;1999.90;999.90;;;25.60;99.90;;;;;;5052571;28;20139;-73
2023/09/02 10:15:06;;;;;;;1999.90;999.90;;;26.40;99.90;;;;;;5072356;28;20024;-77
2023/09/02 10:17:32;;;;;;;1999.90;999.90;;;26.40;99.90;;;;;;5072788;28;20016;-77
2023/09/02 10:19:58;;;;;;;1999.90;999.90;;;26.30;99.90;;;;;;5070901;28;20404;-77
2023/09/02 10:22:29;;;;;;;1999.90;999.90;;;26.80;99.90;;;;;;5071205;28;20025;-73
2023/09/02 10:25:03;;;;;;;1999.90;999.90;;;26.80;99.90;;;;;;5072234;28;20032;-73
2023/09/02 10:27:32;;;;;;;1999.90;999.90;;;27.00;99.90;;;;;;5072431;28;20094;-77
2023/09/02 10:30:00;;;;;;;1999.90;999.90;;;26.60;99.90;;;;;;5072957;28;20025;-73
2023/09/02 10:32:37;;;;;;;1999.90;999.90;;;26.60;99.90;;;;;;5072431;28;20028;-77
2023/09/02 10:35:18;;;;;;;1999.90;999.90;;;26.40;99.90;;;;;;5075722;28;20024;-73
2023/09/02 10:37:47;;;;;;;1999.90;999.90;;;26.50;99.90;;;;;;5075545;28;20021;-73
2023/09/02 10:40:19;;;;;;;1999.90;999.90;;;26.40;99.90;;;;;;5075754;28;20395;-77
2023/09/02 10:42:45;;;;;;;1999.90;999.90;;;26.50;99.90;;;;;;5075967;28;20031;-77
2023/09/02 10:45:11;;;;;;;1999.90;999.90;;;26.50;99.90;;;;;;5075860;28;20094;-77
2023/09/02 10:47:37;;;;;;;1999.90;999.90;;;26.30;99.90;;;;;;5081892;28;20028;-77
2023/09/02 10:50:04;;;;;;;1999.90;999.90;;;26.10;99.90;;;;;;5089736;28;20093;-73
2023/09/02 10:52:30;;;;;;;1999.90;999.90;;;26.20;99.90;;;;;;5095885;28;20115;-77
2023/09/02 10:55:08;;;;;;;1999.90;999.90;;;26.30;99.90;;;;;;5096279;28;20051;-73
2023/09/02 10:58:03;;;;;;;1999.90;999.90;;;26.30;99.90;;;;;;5095349;28;20032;-73
2023/09/02 11:00:29;;;;;;;1999.90;999.90;;;26.40;99.90;;;;;;5073225;28;20404;-77
2023/09/02 11:02:58;;;;;;;1999.90;999.90;;;26.20;99.90;;;;;;5095918;28;20024;-77
2023/09/02 11:05:27;;;;;;;1999.90;999.90;;;26.20;99.90;;;;;;5095521;28;20052;-77
2023/09/02 11:07:54;;;;;;;1999.90;999.90;;;26.40;99.90;;;;;;5095705;28;20028;-77
2023/09/02 11:10:20;;;;;;;1999.90;999.90;;;26.50;99.90;;;;;;5092561;28;20047;-77
2023/09/02 11:13:00;;;;;;;1999.90;999.90;;;26.70;99.90;;;;;;5075282;28;20024;-77
2023/09/02 11:15:27;;;;;;;1999.90;999.90;;;26.80;99.90;;;;;;5075132;28;20090;-73
2023/09/02 11:17:53;;;;;;;1999.90;999.90;;;27.00;99.90;;;;;;5075146;28;20039;-77
2023/09/02 11:20:26;;;;;;;1999.90;999.90;;;27.00;99.90;;;;;;5074728;28;20021;-77
2023/09/02 11:23:08;;;;;;;1999.90;999.90;;;26.90;99.90;;;;;;5077735;28;20470;-77
2023/09/02 11:25:41;;;;;;;1999.90;999.90;;;27.00;99.90;;;;;;5093831;28;20107;-77
2023/09/02 11:28:13;;;;;;;1999.90;999.90;;;26.90;99.90;;;;;;5095179;28;20506;-73
2023/09/02 11:30:39;;;;;;;1999.90;999.90;;;27.10;99.90;;;;;;5095295;28;20100;-73
2023/09/02 11:33:09;;;;;;;1999.90;999.90;;;27.30;99.90;;;;;;5095260;28;20048;-77
2023/09/02 11:35:36;;;;;;;1999.90;999.90;;;27.80;99.90;;;;;;5092962;28;20089;-77
2023/09/02 11:38:15;;;;;;;1999.90;999.90;;;27.80;99.90;;;;;;5074806;28;20103;-77
2023/09/02 11:40:41;;;;;;;1999.90;999.90;;;27.60;99.90;;;;;;5074901;28;20095;-73
2023/09/02 11:43:07;;;;;;;1999.90;999.90;;;27.30;99.90;;;;;;5074568;28;20037;-73
2023/09/02 11:45:34;;;;;;;1999.90;999.90;;;27.40;99.90;;;;;;5074044;28;20381;-73
2023/09/02 11:48:02;;;;;;;1999.90;999.90;;;27.10;99.90;;;;;;5080937;28;20063;-73
2023/09/02 11:50:28;;;;;;;1999.90;999.90;;;26.70;99.90;;;;;;5090692;28;20518;-77
2023/09/02 11:52:56;;;;;;;1999.90;999.90;;;26.60;99.90;;;;;;5094869;28;20028;-73
2023/09/02 11:55:22;;;;;;;1999.90;999.90;;;27.00;99.90;;;;;;5094736;28;20032;-73
2023/09/02 11:57:48;;;;;;;1999.90;999.90;;;27.10;99.90;;;;;;5094402;28;20031;-73
2023/09/02 12:00:17;;;;;;;1999.90;999.90;;;27.40;99.90;;;;;;5080172;28;20028;-77